Time;durP1;ratioP1;P1;durP2;ratioP2;P2;SDS_P1;SDS_P2;PMS_P1;PMS_P2;Temp;Humidity;BMP_temperature;BMP_pressure;BME280_temperature;BME280_humidity;BME280_pressure;Samples;Min_cycle;Max_cycle;Signal;HPM_P1;HPM_P2
2023/07/14 00:01:33;;;;;;;94.38;89.78;;;;;;;24.84;41.83;101643.91;5095223;28;20077;-79
2023/07/14 00:03:58;;;;;;;90.25;86.13;;;;;;;24.82;41.91;101638.69;5094644;28;20036;-76
2023/07/14 00:06:24;;;;;;;91.65;87.28;;;;;;;24.80;41.92;101637.38;5093223;28;20044;-76
2023/07/14 00:08:50;;;;;;;90.97;86.72;;;;;;;24.78;41.81;101643.22;5094564;28;20032;-76
2023/07/14 00:11:18;;;;;;;91.00;86.80;;;;;;;24.76;41.53;101639.97;5094507;28;20068;-76
2023/07/14 00:13:44;;;;;;;90.47;85.97;;;;;;;24.73;41.73;101640.59;5094452;28;20028;-76
2023/07/14 00:16:17;;;;;;;93.63;89.05;;;;;;;24.73;41.87;101642.56;5093943;28;20048;-75
2023/07/14 00:18:42;;;;;;;90.15;85.95;;;;;;;24.70;41.86;101635.72;5094628;28;20038;-76
2023/07/14 00:21:17;;;;;;;90.00;85.57;;;;;;;24.67;41.95;101633.59;5093111;28;20032;-76
2023/07/14 00:23:44;;;;;;;91.55;87.20;;;;;;;24.66;41.99;101631.13;5094214;28;20444;-77
2023/07/14 00:26:19;;;;;;;91.82;87.40;;;;;;;24.63;41.80;101629.81;5092863;28;20035;-77
2023/07/14 00:28:48;;;;;;;93.78;89.38;;;;;;;24.61;41.76;101630.13;5094116;28;20027;-76
2023/07/14 00:31:14;;;;;;;;;;;;;;;24.59;42.09;101617.75;5094700;28;20078;-76
2023/07/14 00:33:41;;;;;;;86.97;82.75;;;;;;;24.56;41.71;101624.72;5094080;28;19912;-76
2023/07/14 00:36:07;;;;;;;90.25;86.05;;;;;;;24.54;42.11;101631.69;5094002;28;20063;-77
2023/07/14 00:38:34;;;;;;;89.50;85.20;;;;;;;24.53;41.54;101630.09;5093960;28;20032;-76
2023/07/14 00:41:00;;;;;;;93.60;88.90;;;;;;;24.50;41.73;101622.44;5094271;28;20148;-76
2023/07/14 00:43:26;;;;;;;89.50;85.20;;;;;;;24.49;41.92;101623.56;5092859;28;20028;-75
2023/07/14 00:45:54;;;;;;;87.95;83.82;;;;;;;24.47;41.63;101625.81;5092516;28;20032;-75
2023/07/14 00:48:21;;;;;;;;;;;;;;;24.46;41.71;101624.19;5092644;28;20039;-76
2023/07/14 00:50:54;;;;;;;87.43;83.32;;;;;;;24.43;41.89;101630.31;5093034;28;19912;-75
2023/07/14 00:53:29;;;;;;;89.55;85.10;;;;;;;24.40;41.89;101623.47;5093992;28;20029;-74
2023/07/14 00:56:03;;;;;;;93.68;89.15;;;;;;;24.38;42.18;101623.78;5093542;28;20036;-76
2023/07/14 00:58:30;;;;;;;89.75;85.55;;;;;;;24.36;42.22;101625.22;5094061;28;20448;-74
2023/07/14 01:01:28;;;;;;;90.65;86.45;;;;;;;24.34;42.33;101622.81;5093157;28;20035;-75
2023/07/14 01:03:55;;;;;;;91.22;86.78;;;;;;;24.32;41.72;101619.53;5058654;28;20032;-75
2023/07/14 01:06:28;;;;;;;89.32;85.03;;;;;;;24.31;42.33;101606.03;5093548;28;20028;-74
2023/07/14 01:09:06;;;;;;;94.20;89.60;;;;;;;24.29;42.08;101609.13;5093129;28;20488;-75
2023/07/14 01:11:42;;;;;;;93.13;88.55;;;;;;;24.28;42.13;101609.44;5093999;28;20024;-76
2023/07/14 01:14:14;;;;;;;88.75;84.50;;;;;;;24.26;42.30;101597.88;5094067;28;20035;-76
2023/07/14 01:16:41;;;;;;;89.78;85.63;;;;;;;24.24;41.82;101600.13;5094053;28;20400;-75
2023/07/14 01:19:37;;;;;;;88.35;83.82;;;;;;;24.23;41.95;101610.38;5093777;28;20115;-76
2023/07/14 01:22:21;;;;;;;89.25;85.05;;;;;;;24.21;41.95;101603.53;5087523;28;20123;-75
2023/07/14 01:25:29;;;;;;;90.30;86.10;;;;;;;24.18;42.08;101605.78;5091703;28;20031;-75
2023/07/14 01:27:54;;;;;;;91.20;86.68;;;;;;;24.16;42.40;101601.72;5079657;28;20048;-75
2023/07/14 01:30:20;;;;;;;89.50;85.07;;;;;;;24.14;42.43;101601.19;5093282;28;20032;-75
2023/07/14 01:32:47;;;;;;;91.03;86.57;;;;;;;24.12;42.49;101597.97;5091920;28;20409;-75
2023/07/14 01:35:16;;;;;;;91.50;87.22;;;;;;;24.11;42.03;101594.34;5092902;28;20468;-75
2023/07/14 01:37:42;;;;;;;89.75;85.47;;;;;;;24.10;41.89;101594.69;5093232;28;20106;-75
2023/07/14 01:40:11;;;;;;;89.80;85.40;;;;;;;24.07;41.97;101595.31;5093209;28;20028;-75
2023/07/14 01:42:40;;;;;;;87.63;83.30;;;;;;;24.08;42.02;101591.44;5093141;28;20043;-75
2023/07/14 01:45:09;;;;;;;;;;;;;;;24.05;42.04;101583.78;5093485;28;20494;-76
2023/07/14 01:47:36;;;;;;;84.80;80.90;;;;;;;24.03;41.86;101591.56;5092061;28;19954;-75
2023/07/14 01:50:02;;;;;;;85.40;81.05;;;;;;;24.01;42.15;101585.53;5092906;28;20036;-76
2023/07/14 01:52:31;;;;;;;88.47;84.18;;;;;;;23.98;42.19;101593.28;5074948;28;20055;-75
2023/07/14 01:55:02;;;;;;;89.47;85.20;;;;;;;23.97;42.36;101588.91;5092667;28;20377;-75
2023/07/14 01:57:30;;;;;;;86.22;82.13;;;;;;;23.96;41.90;101589.22;5093221;28;20060;-75
2023/07/14 02:00:05;;;;;;;90.95;86.75;;;;;;;23.94;42.32;101589.53;5093202;28;20062;-75
2023/07/14 02:02:34;;;;;;;86.45;82.43;;;;;;;23.92;42.34;101583.53;5093509;28;20324;-74
2023/07/14 02:05:15;;;;;;;87.25;83.25;;;;;;;23.91;42.53;101587.41;5091569;28;20463;-75
2023/07/14 02:07:40;;;;;;;87.97;83.65;;;;;;;23.89;42.33;101583.31;5093238;28;20102;-75
2023/07/14 02:10:16;;;;;;;90.68;86.28;;;;;;;23.89;42.15;101580.56;5094283;28;20142;-74
2023/07/14 02:12:46;;;;;;;86.40;82.40;;;;;;;23.86;42.13;101576.47;5095498;28;20040;-76
2023/07/14 02:15:17;;;;;;;86.07;81.97;;;;;;;23.85;41.86;101571.28;5096900;28;20035;-75
2023/07/14 02:17:44;;;;;;;85.70;81.60;;;;;;;23.83;42.25;101576.28;5097131;28;20055;-76
2023/07/14 02:20:20;;;;;;;86.70;82.60;;;;;;;23.82;42.18;101566.41;5079183;28;20078;-77
2023/07/14 02:22:48;;;;;;;86.88;82.63;;;;;;;23.79;42.51;101567.00;5095570;28;20028;-76
2023/07/14 02:25:17;;;;;;;87.25;83.20;;;;;;;23.77;42.28;101563.75;5097050;28;20498;-76
2023/07/14 02:27:42;;;;;;;84.50;80.60;;;;;;;23.77;42.42;101566.53;5096827;28;20040;-76
2023/07/14 02:30:20;;;;;;;84.07;80.07;;;;;;;23.74;42.05;101559.69;5096808;28;20117;-76
2023/07/14 02:32:59;;;;;;;86.22;82.32;;;;;;;23.72;42.06;101565.50;5096522;28;20115;-76
2023/07/14 02:35:47;;;;;;;85.88;81.97;;;;;;;23.70;42.14;101573.25;5096666;28;20311;-77
2023/07/14 02:38:14;;;;;;;;;;;;;;;23.68;41.99;101578.25;5095951;28;20031;-77
2023/07/14 02:41:09;;;;;;;83.20;79.35;;;;;;;23.65;42.01;101578.06;5096451;28;20359;-76
2023/07/14 02:43:34;;;;;;;85.70;81.70;;;;;;;23.62;42.37;101573.19;5096814;28;20094;-75
2023/07/14 02:46:16;;;;;;;84.28;80.07;;;;;;;23.60;42.42;101565.19;5095162;28;20473;-75
2023/07/14 02:48:44;;;;;;;87.13;81.95;;;;;;;23.58;42.46;101572.97;5095952;28;20456;-75
2023/07/14 02:51:11;;;;;;;;;;;;;;;23.56;42.13;101577.97;5096375;28;20027;-74
2023/07/14 02:53:36;;;;;;;81.30;77.32;;;;;;;23.54;41.98;101566.47;5094708;28;19912;-75
2023/07/14 02:56:03;;;;;;;81.32;77.43;;;;;;;23.51;42.46;101567.91;5096195;28;20468;-76
2023/07/14 02:58:29;;;;;;;85.40;81.38;;;;;;;23.50;42.21;101569.00;5094478;28;20468;-76
2023/07/14 03:00:55;;;;;;;80.57;76.82;;;;;;;23.48;42.41;101565.72;5095816;28;20028;-76
2023/07/14 03:03:20;;;;;;;86.47;82.32;;;;;;;23.49;42.10;101574.84;5095117;28;20043;-76
2023/07/14 03:05:46;;;;;;;84.60;80.38;;;;;;;23.45;42.01;101568.31;5095860;28;20060;-76
2023/07/14 03:08:16;;;;;;;85.28;81.10;;;;;;;23.45;42.52;101571.06;5094508;28;20067;-75
2023/07/14 03:10:43;;;;;;;84.65;80.47;;;;;;;23.43;42.32;101570.56;5094455;28;20059;-74
2023/07/14 03:13:09;;;;;;;85.07;81.03;;;;;;;23.41;42.12;101573.63;5094457;28;20036;-75
2023/07/14 03:15:34;;;;;;;83.75;79.85;;;;;;;23.40;42.36;101571.19;5095474;28;20035;-75
2023/07/14 03:18:00;;;;;;;89.82;85.57;;;;;;;23.39;42.05;101564.03;5095783;28;20044;-75
2023/07/14 03:20:25;;;;;;;86.47;82.20;;;;;;;23.38;42.22;101562.41;5094373;28;20040;-75
2023/07/14 03:22:51;;;;;;;90.05;85.53;;;;;;;23.36;42.53;101556.38;5093966;28;20432;-75
2023/07/14 03:25:16;;;;;;;84.72;80.80;;;;;;;23.33;42.08;101555.03;5095354;28;20039;-76
2023/07/14 03:27:43;;;;;;;88.22;84.03;;;;;;;23.32;42.42;101553.44;5077432;28;20043;-75
2023/07/14 03:30:09;;;;;;;85.03;81.03;;;;;;;23.29;42.41;101549.34;5094150;28;20054;-75
2023/07/14 03:32:35;;;;;;;86.00;81.57;;;;;;;23.27;42.51;101543.31;5095309;28;20036;-76
2023/07/14 03:35:01;;;;;;;83.05;79.15;;;;;;;23.26;42.59;101543.66;5095199;28;20157;-76
2023/07/14 03:37:26;;;;;;;82.90;78.93;;;;;;;23.25;42.48;101545.56;5095470;28;20157;-76
2023/07/14 03:39:52;;;;;;;85.85;81.85;;;;;;;23.22;42.63;101543.44;5094898;28;20120;-75
2023/07/14 03:42:17;;;;;;;83.00;78.75;;;;;;;23.21;42.20;101538.22;5093747;28;20383;-75
2023/07/14 03:44:42;;;;;;;86.03;81.55;;;;;;;23.19;42.31;101541.31;5094278;28;20101;-76
2023/07/14 03:47:08;;;;;;;83.68;79.45;;;;;;;23.17;42.60;101538.03;5076987;28;20054;-75
2023/07/14 03:49:34;;;;;;;80.70;76.75;;;;;;;23.15;42.23;101534.75;5076616;28;20039;-75
2023/07/14 03:52:00;;;;;;;85.78;81.75;;;;;;;23.13;42.43;101538.94;5094121;28;20024;-76
2023/07/14 03:54:25;;;;;;;83.72;79.53;;;;;;;23.12;42.48;101532.63;5095086;28;20032;-75
2023/07/14 03:56:54;;;;;;;82.78;78.85;;;;;;;23.09;42.48;101530.50;5094766;28;20464;-76
2023/07/14 03:59:20;;;;;;;81.55;77.80;;;;;;;23.08;42.30;101537.97;5094649;28;20502;-76
2023/07/14 04:01:46;;;;;;;85.32;81.18;;;;;;;23.06;42.39;101531.13;5094683;28;20464;-76
2023/07/14 04:04:11;;;;;;;82.78;78.70;;;;;;;23.04;42.37;101536.94;5094298;28;20077;-76
2023/07/14 04:06:37;;;;;;;80.25;76.15;;;;;;;23.03;42.20;101528.97;5095148;28;20088;-76
2023/07/14 04:09:02;;;;;;;82.80;78.65;;;;;;;23.01;42.03;101525.72;5094904;28;20066;-76
2023/07/14 04:11:28;;;;;;;83.20;79.38;;;;;;;22.99;42.25;101526.03;5094192;28;20136;-76
2023/07/14 04:13:53;;;;;;;84.18;80.20;;;;;;;22.98;42.55;101526.31;5093341;28;20032;-77
2023/07/14 04:16:23;;;;;;;83.78;79.57;;;;;;;22.97;42.57;101532.94;5094398;28;20068;-75
2023/07/14 04:18:49;;;;;;;79.88;75.88;;;;;;;22.95;42.20;101532.41;5093143;28;20032;-76
2023/07/14 04:21:14;;;;;;;82.10;78.18;;;;;;;22.93;42.31;101531.91;5093000;28;20097;-75
2023/07/14 04:23:40;;;;;;;82.65;78.78;;;;;;;22.91;42.28;101523.97;5076183;28;20029;-74
2023/07/14 04:26:11;;;;;;;82.88;78.65;;;;;;;22.89;42.59;101535.28;5094404;28;20500;-74
2023/07/14 04:28:37;;;;;;;82.47;78.65;;;;;;;22.87;42.52;101529.25;5094288;28;20020;-74
2023/07/14 04:31:02;;;;;;;81.95;77.95;;;;;;;22.85;42.17;101527.94;5094530;28;20375;-75
2023/07/14 04:33:29;;;;;;;84.20;80.15;;;;;;;22.84;42.33;101526.31;5093996;28;20103;-75
2023/07/14 04:35:55;;;;;;;83.47;79.13;;;;;;;22.82;42.77;101523.84;5093112;28;20036;-76
2023/07/14 04:38:22;;;;;;;86.60;82.68;;;;;;;22.81;42.69;101527.72;5092712;28;20028;-76
2023/07/14 04:40:48;;;;;;;82.57;78.68;;;;;;;22.78;42.80;101528.34;5093107;28;20024;-76
2023/07/14 04:43:14;;;;;;;82.85;78.68;;;;;;;22.77;42.62;101534.16;5093836;28;20498;-78
2023/07/14 04:45:42;;;;;;;81.65;77.50;;;;;;;22.75;42.25;101537.22;5093880;28;20036;-74
2023/07/14 04:48:09;;;;;;;84.03;79.83;;;;;;;22.74;42.28;101529.25;5092480;28;20036;-75
2023/07/14 04:50:36;;;;;;;80.65;76.85;;;;;;;22.72;42.51;101532.31;5093665;28;20039;-76
2023/07/14 04:53:05;;;;;;;82.25;77.97;;;;;;;22.71;42.21;101538.16;5093583;28;20036;-75
2023/07/14 04:55:38;;;;;;;81.25;77.43;;;;;;;22.68;42.36;101534.88;5092446;28;20024;-76
2023/07/14 04:58:04;;;;;;;79.55;75.68;;;;;;;22.67;42.35;101537.91;5093720;28;20038;-75
2023/07/14 05:00:30;;;;;;;80.43;76.28;;;;;;;22.66;42.59;101536.31;5093836;28;20077;-75
2023/07/14 05:02:56;;;;;;;80.03;76.22;;;;;;;22.64;42.59;101527.53;5093590;28;20036;-74
2023/07/14 05:05:23;;;;;;;81.07;77.20;;;;;;;22.62;42.28;101521.50;5076288;28;20496;-75
2023/07/14 05:07:49;;;;;;;81.15;77.20;;;;;;;22.61;42.36;101533.66;5094152;28;20024;-75
2023/07/14 05:10:16;;;;;;;83.18;79.05;;;;;;;22.60;42.26;101526.50;5075240;28;20032;-75
2023/07/14 05:12:41;;;;;;;78.45;74.68;;;;;;;22.58;42.35;101526.81;5092246;28;20040;-75
2023/07/14 05:15:10;;;;;;;77.55;73.65;;;;;;;22.57;42.32;101525.16;5093554;28;20030;-74
2023/07/14 05:17:37;;;;;;;83.47;79.53;;;;;;;22.55;42.65;101523.84;5091964;28;20052;-75
2023/07/14 05:20:03;;;;;;;77.72;73.93;;;;;;;22.54;42.53;101523.03;5091886;28;20036;-75
2023/07/14 05:22:29;;;;;;;77.35;73.55;;;;;;;22.53;42.41;101531.56;5091688;28;20435;-75
2023/07/14 05:24:54;;;;;;;77.47;73.68;;;;;;;22.52;42.91;101525.25;5092919;28;20032;-75
2023/07/14 05:27:20;;;;;;;80.03;76.35;;;;;;;22.53;42.39;101523.31;5091561;28;20081;-75
2023/07/14 05:29:47;;;;;;;78.03;74.03;;;;;;;22.51;42.67;101520.88;5092932;28;20036;-75
2023/07/14 05:32:12;;;;;;;78.68;74.90;;;;;;;22.52;42.61;101518.94;5092613;28;20537;-75
2023/07/14 05:34:38;;;;;;;80.13;76.18;;;;;;;22.51;42.34;101517.31;5091187;28;20028;-77
2023/07/14 05:37:03;;;;;;;77.60;73.43;;;;;;;22.51;42.77;101507.13;5091507;28;20035;-76
2023/07/14 05:39:29;;;;;;;78.35;74.55;;;;;;;22.51;42.58;101514.56;5092793;28;20107;-75
2023/07/14 05:41:58;;;;;;;77.25;73.57;;;;;;;22.50;42.80;101516.47;5091494;28;20070;-76
2023/07/14 05:44:24;;;;;;;77.45;73.47;;;;;;;22.52;42.34;101524.44;5094368;28;20034;-75
2023/07/14 05:46:50;;;;;;;77.90;74.20;;;;;;;22.51;42.80;101525.59;5095337;28;20036;-76
2023/07/14 05:49:16;;;;;;;80.20;76.38;;;;;;;22.51;42.85;101520.06;5096592;28;20085;-74
2023/07/14 05:51:42;;;;;;;83.13;78.82;;;;;;;22.50;42.73;101521.19;5095764;28;20097;-76
2023/07/14 05:54:07;;;;;;;79.95;76.10;;;;;;;22.51;42.62;101520.06;5095755;28;20387;-75
2023/07/14 05:56:34;;;;;;;79.88;75.85;;;;;;;22.51;42.39;101520.06;5095458;28;20032;-78
2023/07/14 05:58:59;;;;;;;80.55;76.68;;;;;;;22.50;42.29;101518.44;5096867;28;20036;-75
2023/07/14 06:01:25;;;;;;;73.05;69.65;;;;;;;22.50;42.59;101515.69;5095641;28;20093;-75
2023/07/14 06:03:50;;;;;;;76.95;73.43;;;;;;;22.51;42.50;101518.13;5095979;28;20089;-77
2023/07/14 06:06:16;;;;;;;74.13;70.60;;;;;;;22.51;42.45;101512.63;5078494;28;20036;-75
2023/07/14 06:08:42;;;;;;;73.20;69.60;;;;;;;22.51;42.52;101520.06;5095556;28;20056;-77
2023/07/14 06:11:08;;;;;;;76.35;72.70;;;;;;;22.52;42.45;101513.44;5096672;28;20123;-76
2023/07/14 06:13:33;;;;;;;76.55;72.80;;;;;;;22.52;42.33;101514.25;5096387;28;20071;-76
2023/07/14 06:15:59;;;;;;;78.28;74.68;;;;;;;22.53;42.35;101504.88;5096439;28;20048;-76
2023/07/14 06:18:25;;;;;;;78.72;74.75;;;;;;;22.55;42.70;101496.31;5096932;28;20385;-73
2023/07/14 06:20:50;;;;;;;74.45;70.90;;;;;;;22.54;42.63;101503.75;5095055;28;20153;-76
2023/07/14 06:23:16;;;;;;;77.28;73.75;;;;;;;22.56;42.31;101497.94;5096417;28;20058;-76
2023/07/14 06:25:42;;;;;;;76.80;73.10;;;;;;;22.55;42.49;101508.13;5096444;28;20032;-75
2023/07/14 06:28:08;;;;;;;74.32;70.82;;;;;;;22.57;42.52;101511.41;5095082;28;20117;-74
2023/07/14 06:30:34;;;;;;;75.50;71.97;;;;;;;22.58;42.48;101501.19;5094828;28;20448;-74
2023/07/14 06:33:01;;;;;;;77.07;73.13;;;;;;;22.57;42.53;101502.31;5095726;28;20152;-77
2023/07/14 06:35:27;;;;;;;75.63;71.57;;;;;;;22.58;42.75;101507.53;5094386;28;20027;-75
2023/07/14 06:37:55;;;;;;;77.30;73.45;;;;;;;22.58;42.49;101498.44;5078253;28;20455;-74
2023/07/14 06:40:21;;;;;;;76.88;73.07;;;;;;;22.56;42.76;101493.25;5094495;28;20101;-74
2023/07/14 06:42:46;;;;;;;78.07;74.28;;;;;;;22.57;42.49;101494.88;5094745;28;20024;-75
2023/07/14 06:45:12;;;;;;;77.63;73.60;;;;;;;22.57;42.87;101485.81;5095806;28;20480;-74
2023/07/14 06:47:38;;;;;;;77.15;73.43;;;;;;;22.57;42.93;101488.56;5094694;28;20020;-75
2023/07/14 06:50:04;;;;;;;77.63;73.65;;;;;;;22.58;43.05;101492.94;5096175;28;20028;-74
2023/07/14 06:52:30;;;;;;;78.88;74.93;;;;;;;22.59;42.61;101494.59;5096168;28;20035;-74
2023/07/14 06:54:57;;;;;;;78.15;74.15;;;;;;;22.61;42.58;101495.09;5095520;28;20031;-74
2023/07/14 06:57:23;;;;;;;77.22;73.22;;;;;;;22.62;42.79;101488.47;5096396;28;20028;-74
2023/07/14 06:59:48;;;;;;;76.30;72.20;;;;;;;22.65;42.84;101487.84;5095481;28;20478;-73
2023/07/14 07:02:14;;;;;;;75.82;71.80;;;;;;;22.66;42.54;101484.78;5095737;28;20028;-76
2023/07/14 07:04:41;;;;;;;79.35;75.45;;;;;;;22.67;42.63;101482.84;5095683;28;20115;-75
2023/07/14 07:07:06;;;;;;;77.47;73.30;;;;;;;22.68;42.60;101471.53;5094489;28;20031;-74
2023/07/14 07:09:32;;;;;;;81.00;76.80;;;;;;;22.71;42.65;101470.09;5095409;28;20028;-75
2023/07/14 07:11:57;;;;;;;78.78;74.68;;;;;;;22.73;42.66;101470.63;5094418;28;20115;-74
2023/07/14 07:14:23;;;;;;;79.95;75.90;;;;;;;22.76;42.66;101472.75;5060548;28;20032;-75
2023/07/14 07:16:48;;;;;;;81.00;76.97;;;;;;;22.77;42.79;101470.81;5095594;28;20119;-75
2023/07/14 07:19:15;;;;;;;80.78;76.85;;;;;;;22.80;43.16;101468.25;5077156;28;20111;-75
2023/07/14 07:21:40;;;;;;;81.38;77.28;;;;;;;22.83;43.06;101464.06;5077089;28;20543;-75
2023/07/14 07:24:06;;;;;;;77.45;73.75;;;;;;;22.85;43.13;101468.13;5094004;28;20103;-75
2023/07/14 07:26:32;;;;;;;83.72;79.82;;;;;;;22.88;42.97;101473.06;5077044;28;20028;-75
2023/07/14 07:28:57;;;;;;;77.88;74.20;;;;;;;22.90;42.91;101464.47;5095216;28;20063;-74
2023/07/14 07:31:23;;;;;;;80.00;76.00;;;;;;;22.91;42.69;101457.84;5093657;28;20028;-74
2023/07/14 07:33:48;;;;;;;80.00;76.00;;;;;;;22.95;43.18;101466.28;5094011;28;20081;-74
2023/07/14 07:36:15;;;;;;;82.75;78.70;;;;;;;22.97;43.06;101475.06;5095051;28;20107;-74
2023/07/14 07:38:49;;;;;;;81.30;77.22;;;;;;;22.99;42.94;101472.84;5094882;28;20032;-78
2023/07/14 07:41:17;;;;;;;83.47;79.43;;;;;;;23.00;42.75;101468.97;5094655;28;20024;-75
2023/07/14 07:43:43;;;;;;;85.30;81.30;;;;;;;23.02;42.90;101466.72;5093754;28;20031;-75
2023/07/14 07:46:08;;;;;;;80.35;76.35;;;;;;;23.04;42.79;101470.00;5076901;28;20570;-75
2023/07/14 07:48:35;;;;;;;81.70;77.47;;;;;;;23.06;43.07;101463.03;5093487;28;20028;-73
2023/07/14 07:51:02;;;;;;;78.57;74.70;;;;;;;23.08;43.05;101454.44;5093729;28;20448;-76
2023/07/14 07:53:28;;;;;;;81.57;77.30;;;;;;;23.11;43.13;101448.34;5094987;28;20020;-75
2023/07/14 07:55:58;;;;;;;78.78;75.18;;;;;;;23.13;43.16;101448.00;5093273;28;20034;-75
2023/07/14 07:58:24;;;;;;;83.25;79.10;;;;;;;23.15;43.33;101448.53;5094767;28;20448;-74
2023/07/14 08:00:54;;;;;;;81.70;77.90;;;;;;;23.17;42.72;101452.59;5094615;28;20051;-75
2023/07/14 08:03:20;;;;;;;81.20;77.00;;;;;;;23.18;43.19;101451.47;5095121;28;20023;-75
2023/07/14 08:05:45;;;;;;;81.57;77.80;;;;;;;23.21;43.24;101450.03;5094370;28;20468;-74
2023/07/14 08:08:10;;;;;;;82.47;78.47;;;;;;;23.23;42.98;101450.53;5092392;28;20039;-75
2023/07/14 08:10:45;;;;;;;83.75;79.75;;;;;;;23.25;43.26;101449.09;5075723;28;20103;-75
2023/07/14 08:13:11;;;;;;;81.82;77.97;;;;;;;23.26;42.86;101450.75;5094447;28;20035;-73
2023/07/14 08:15:37;;;;;;;80.70;76.53;;;;;;;23.28;43.15;101451.25;5092723;28;20024;-75
2023/07/14 08:18:03;;;;;;;83.85;79.63;;;;;;;23.31;42.83;101450.63;5092437;28;20080;-74
2023/07/14 08:20:29;;;;;;;82.85;78.60;;;;;;;23.33;43.20;101445.63;5093925;28;20052;-74
2023/07/14 08:22:54;;;;;;;82.38;78.50;;;;;;;23.36;43.25;101443.34;5092898;28;20081;-74
2023/07/14 08:25:21;;;;;;;83.47;79.45;;;;;;;23.38;43.30;101441.09;5093685;28;20059;-74
2023/07/14 08:27:47;;;;;;;79.40;75.72;;;;;;;23.40;43.28;101449.88;5094008;28;20031;-75
2023/07/14 08:30:12;;;;;;;86.35;82.40;;;;;;;23.41;43.20;101441.31;5076038;28;20024;-74
2023/07/14 08:32:37;;;;;;;85.63;81.63;;;;;;;23.42;42.91;101437.41;5093945;28;20466;-76
2023/07/14 08:35:03;;;;;;;81.60;77.80;;;;;;;23.44;42.81;101443.44;5092801;28;20052;-74
2023/07/14 08:37:29;;;;;;;84.63;80.53;;;;;;;23.46;43.06;101440.34;5092490;28;20074;-77
2023/07/14 08:39:54;;;;;;;85.78;81.95;;;;;;;23.49;43.06;101448.00;5076502;28;20145;-74
2023/07/14 08:42:38;;;;;;;82.03;77.93;;;;;;;23.50;43.22;101438.59;5093167;28;20085;-76
2023/07/14 08:45:07;;;;;;;81.07;77.22;;;;;;;23.53;42.90;101432.44;5094081;28;20102;-74
2023/07/14 08:47:43;;;;;;;;;;;;;;;23.55;43.03;101436.53;5093464;28;20040;-75
2023/07/14 08:50:22;;;;;;;81.25;77.55;;;;;;;23.56;43.12;101431.81;5093836;28;19915;-73
2023/07/14 08:52:51;;;;;;;86.82;82.70;;;;;;;23.59;43.31;101425.69;5094008;28;20455;-73
2023/07/14 08:55:21;;;;;;;81.22;77.63;;;;;;;23.61;43.43;101434.47;5093039;28;20016;-73
2023/07/14 08:58:31;;;;;;;82.95;78.55;;;;;;;23.65;42.95;101429.13;5093445;28;20391;-73
2023/07/14 09:00:56;;;;;;;85.93;81.85;;;;;;;23.68;43.14;101429.31;5034539;28;20064;-73
2023/07/14 09:03:39;;;;;;;83.75;79.57;;;;;;;23.71;42.81;101425.94;5051148;28;20056;-73
2023/07/14 09:06:16;;;;;;;88.93;84.45;;;;;;;23.75;43.10;101417.88;5076344;28;20093;-72
2023/07/14 09:08:42;;;;;;;85.65;81.40;;;;;;;23.79;42.92;101429.06;5093445;28;20419;-72
2023/07/14 09:11:35;;;;;;;83.07;79.30;;;;;;;23.84;42.87;101423.41;5092124;28;20028;-73
2023/07/14 09:14:27;;;;;;;85.82;81.95;;;;;;;23.88;42.79;101414.19;5074836;28;20036;-73
2023/07/14 09:17:13;;;;;;;85.32;81.32;;;;;;;23.93;43.04;101419.56;5093420;28;20046;-72
2023/07/14 09:20:10;;;;;;;84.20;80.10;;;;;;;23.98;42.64;101413.13;5092368;28;20578;-72
2023/07/14 09:23:05;;;;;;;85.65;81.47;;;;;;;24.03;42.55;101404.69;5093358;28;20036;-72
2023/07/14 09:25:45;;;;;;;84.40;80.30;;;;;;;24.07;43.01;101391.91;5092242;28;20055;-75
2023/07/14 09:28:30;;;;;;;88.35;84.32;;;;;;;24.14;42.95;101399.69;5093903;28;20100;-73
2023/07/14 09:30:59;;;;;;;87.57;83.25;;;;;;;24.18;42.45;101396.00;5093205;28;20028;-73
2023/07/14 09:33:28;;;;;;;88.55;84.35;;;;;;;24.25;42.52;101397.50;5093050;28;20059;-72
2023/07/14 09:35:53;;;;;;;87.60;83.50;;;;;;;24.29;42.81;101391.00;5091871;28;20085;-75
2023/07/14 09:38:26;;;;;;;91.75;87.68;;;;;;;24.35;42.80;101394.44;5093110;28;20409;-73
2023/07/14 09:40:59;;;;;;;90.10;85.70;;;;;;;24.41;42.51;101385.66;5092591;28;20047;-73
2023/07/14 09:43:25;;;;;;;88.50;84.43;;;;;;;24.47;42.77;101393.84;5092979;28;20027;-73
2023/07/14 09:45:54;;;;;;;95.80;91.55;;;;;;;24.52;42.91;101397.28;5093305;28;20089;-71
2023/07/14 09:48:25;;;;;;;87.57;83.75;;;;;;;24.58;42.88;101393.22;5092338;28;20028;-72
2023/07/14 09:50:54;;;;;;;89.85;85.45;;;;;;;24.64;42.52;101388.34;5092871;28;20074;-73
2023/07/14 09:53:19;;;;;;;93.97;89.78;;;;;;;24.70;42.42;101383.50;5092872;28;20047;-73
2023/07/14 09:55:44;;;;;;;91.63;87.13;;;;;;;24.76;42.42;101368.38;5092479;28;20036;-73
2023/07/14 09:58:15;;;;;;;94.57;90.10;;;;;;;24.81;42.81;101371.78;5091678;28;20470;-73
2023/07/14 10:00:41;;;;;;;95.18;90.88;;;;;;;24.86;42.63;101368.06;5093135;28;20020;-74
2023/07/14 10:03:11;;;;;;;90.55;86.43;;;;;;;24.92;42.25;101366.78;5092620;28;20054;-75
2023/07/14 10:06:02;;;;;;;93.75;89.47;;;;;;;24.98;42.42;101364.66;5092657;28;20039;-72
2023/07/14 10:08:34;;;;;;;93.25;89.03;;;;;;;25.03;42.50;101351.47;5091599;28;20028;-73
2023/07/14 10:11:19;;;;;;;94.72;90.43;;;;;;;25.10;42.15;101347.41;5092832;28;20032;-72
2023/07/14 10:13:55;;;;;;;95.65;91.10;;;;;;;25.16;42.23;101348.88;5092932;28;20027;-73
2023/07/14 10:16:21;;;;;;;97.32;92.93;;;;;;;25.20;42.10;101345.16;5092545;28;20020;-71
2023/07/14 10:19:05;;;;;;;101.57;96.78;;;;;;;25.26;42.26;101348.56;5092896;28;20202;-73
2023/07/14 10:21:34;;;;;;;95.80;91.20;;;;;;;25.32;42.32;101340.91;5092510;28;20125;-73
2023/07/14 10:24:16;;;;;;;99.30;94.70;;;;;;;25.36;42.25;101331.63;5091278;28;20442;-72
2023/07/14 10:26:50;;;;;;;99.20;94.65;;;;;;;25.42;41.60;101323.97;5092818;28;20440;-73
2023/07/14 10:29:18;;;;;;;100.82;95.63;;;;;;;25.47;41.51;101330.13;5092284;28;20072;-73
2023/07/14 10:31:53;;;;;;;98.20;93.65;;;;;;;25.53;41.60;101321.66;5094608;28;20020;-73
2023/07/14 10:34:44;;;;;;;98.95;94.35;;;;;;;25.58;41.59;101322.31;5095128;28;20020;-73
2023/07/14 10:37:27;;;;;;;98.72;94.32;;;;;;;25.64;41.83;101311.88;5096856;28;20024;-73
2023/07/14 10:40:11;;;;;;;98.95;94.35;;;;;;;25.70;41.21;101305.00;5094751;28;20093;-72
2023/07/14 10:42:41;;;;;;;96.25;91.95;;;;;;;25.73;41.25;101307.13;5096339;28;20032;-73
2023/07/14 10:45:13;;;;;;;100.82;96.07;;;;;;;25.79;41.63;101304.97;5095819;28;20081;-74
2023/07/14 10:48:00;;;;;;;102.32;97.50;;;;;;;25.83;41.60;101306.75;5096020;28;20016;-74
2023/07/14 10:50:36;;;;;;;101.55;96.25;;;;;;;25.87;41.12;101304.94;5094581;28;20035;-72
2023/07/14 10:53:24;;;;;;;98.85;93.97;;;;;;;25.92;41.32;101281.81;5096448;28;20028;-72
2023/07/14 10:55:50;;;;;;;;;;;;;;;25.96;41.22;101268.13;5096467;28;20020;-74
2023/07/14 10:58:43;;;;;;;101.63;97.03;;;;;;;25.99;41.02;101261.91;5094886;28;20363;-75
2023/07/14 11:01:18;;;;;;;99.95;95.47;;;;;;;26.04;41.21;101273.59;5094128;28;20108;-74
2023/07/14 11:03:53;;;;;;;103.18;98.43;;;;;;;26.06;41.25;101263.00;5095805;28;20031;-73
2023/07/14 11:06:31;;;;;;;100.35;95.90;;;;;;;26.11;41.15;101259.25;5095840;28;20107;-72
2023/07/14 11:08:57;;;;;;;97.63;93.13;;;;;;;26.16;41.07;101258.22;5094328;28;20036;-73
2023/07/14 11:11:51;;;;;;;102.30;97.55;;;;;;;26.19;41.14;101255.59;5096317;28;20042;-72
2023/07/14 11:14:29;;;;;;;100.95;96.25;;;;;;;26.22;40.86;101254.91;5096177;28;20039;-74
2023/07/14 11:17:24;;;;;;;108.38;103.50;;;;;;;26.26;40.79;101255.06;5094379;28;20036;-73
2023/07/14 11:20:04;;;;;;;108.85;104.05;;;;;;;26.29;40.77;101254.41;5096452;28;20119;-73
2023/07/14 11:22:55;;;;;;;101.85;97.40;;;;;;;26.31;40.77;101255.69;5095975;28;20040;-72
2023/07/14 11:25:29;;;;;;;100.13;95.63;;;;;;;26.36;40.80;101262.16;5096219;28;20028;-72